sensor_id;sensor_type;location;lat;lon;timestamp;pressure;altitude;pressure_sealevel;temperature;humidity
5413;BME280;2729;50.056;8.678;2023-01-16T00:01:18;98940.06;;;6.85;100.00
5413;BME280;2729;50.056;8.678;2023-01-16T00:03:44;98929.41;;;6.66;100.00
5413;BME280;2729;50.056;8.678;2023-01-16T00:06:10;98926.06;;;6.91;100.00
5413;BME280;2729;50.056;8.678;2023-01-16T00:08:36;98910.78;;;7.08;100.00
5413;BME280;2729;50.056;8.678;2023-01-16T00:11:02;98905.09;;;6.97;100.00
5413;BME280;2729;50.056;8.678;2023-01-16T00:13:28;98898.81;;;6.77;100.00
5413;BME280;2729;50.056;8.678;2023-01-16T00:15:54;98890.34;;;6.99;100.00
5413;BME280;2729;50.056;8.678;2023-01-16T00:18:20;98882.56;;;6.99;100.00
5413;BME280;2729;50.056;8.678;2023-01-16T00:20:47;98885.00;;;6.77;100.00
5413;BME280;2729;50.056;8.678;2023-01-16T00:23:14;98881.59;;;6.75;100.00
5413;BME280;2729;50.056;8.678;2023-01-16T00:25:41;98870.91;;;6.86;100.00
5413;BME280;2729;50.056;8.678;2023-01-16T00:28:12;98859.50;;;6.63;100.00
5413;BME280;2729;50.056;8.678;2023-01-16T00:30:38;98850.69;;;6.69;100.00
5413;BME280;2729;50.056;8.678;2023-01-16T00:33:05;98846.34;;;6.96;100.00
5413;BME280;2729;50.056;8.678;2023-01-16T00:35:32;98843.16;;;6.61;100.00
5413;BME280;2729;50.056;8.678;2023-01-16T00:37:58;98841.72;;;6.79;100.00
5413;BME280;2729;50.056;8.678;2023-01-16T00:40:24;98828.66;;;6.82;100.00
5413;BME280;2729;50.056;8.678;2023-01-16T00:42:50;98818.81;;;6.92;100.00
5413;BME280;2729;50.056;8.678;2023-01-16T00:45:16;98820.78;;;6.85;100.00
5413;BME280;2729;50.056;8.678;2023-01-16T00:47:42;98808.25;;;6.98;100.00
5413;BME280;2729;50.056;8.678;2023-01-16T00:50:09;98802.63;;;7.10;100.00
5413;BME280;2729;50.056;8.678;2023-01-16T00:52:35;98798.81;;;6.95;100.00
5413;BME280;2729;50.056;8.678;2023-01-16T00:55:01;98792.50;;;6.77;100.00
5413;BME280;2729;50.056;8.678;2023-01-16T00:57:27;98796.19;;;6.97;100.00
5413;BME280;2729;50.056;8.678;2023-01-16T00:59:53;98788.75;;;6.86;100.00
5413;BME280;2729;50.056;8.678;2023-01-16T01:02:18;98775.78;;;6.86;100.00
5413;BME280;2729;50.056;8.678;2023-01-16T01:04:44;98770.03;;;7.03;100.00
5413;BME280;2729;50.056;8.678;2023-01-16T01:07:10;98772.38;;;7.34;100.00
5413;BME280;2729;50.056;8.678;2023-01-16T01:09:36;98773.19;;;7.11;100.00
5413;BME280;2729;50.056;8.678;2023-01-16T01:12:02;98778.34;;;6.88;100.00
5413;BME280;2729;50.056;8.678;2023-01-16T01:14:28;98772.94;;;6.69;100.00
5413;BME280;2729;50.056;8.678;2023-01-16T01:16:54;98767.31;;;6.81;100.00
5413;BME280;2729;50.056;8.678;2023-01-16T01:19:20;98777.56;;;6.59;100.00
5413;BME280;2729;50.056;8.678;2023-01-16T01:21:46;98769.09;;;6.54;100.00
5413;BME280;2729;50.056;8.678;2023-01-16T01:24:12;98768.00;;;6.61;100.00
5413;BME280;2729;50.056;8.678;2023-01-16T01:26:38;98762.41;;;6.73;100.00
5413;BME280;2729;50.056;8.678;2023-01-16T01:29:04;98757.31;;;6.70;100.00
5413;BME280;2729;50.056;8.678;2023-01-16T01:31:30;98750.22;;;6.75;100.00
5413;BME280;2729;50.056;8.678;2023-01-16T01:33:56;98737.59;;;6.66;100.00
5413;BME280;2729;50.056;8.678;2023-01-16T01:36:22;98728.22;;;6.87;100.00
5413;BME280;2729;50.056;8.678;2023-01-16T01:38:48;98728.69;;;6.73;100.00
5413;BME280;2729;50.056;8.678;2023-01-16T01:41:16;98727.31;;;6.88;100.00
5413;BME280;2729;50.056;8.678;2023-01-16T01:43:54;98720.13;;;6.71;100.00
5413;BME280;2729;50.056;8.678;2023-01-16T01:46:30;98702.41;;;6.84;100.00
5413;BME280;2729;50.056;8.678;2023-01-16T01:49:05;98703.34;;;6.82;100.00
5413;BME280;2729;50.056;8.678;2023-01-16T01:51:35;98686.81;;;6.61;100.00
5413;BME280;2729;50.056;8.678;2023-01-16T01:54:21;98680.56;;;6.66;100.00
5413;BME280;2729;50.056;8.678;2023-01-16T01:56:51;98675.84;;;6.77;100.00
5413;BME280;2729;50.056;8.678;2023-01-16T01:59:31;98675.22;;;6.71;100.00
5413;BME280;2729;50.056;8.678;2023-01-16T02:01:58;98666.16;;;6.83;100.00
5413;BME280;2729;50.056;8.678;2023-01-16T02:04:30;98657.69;;;7.48;100.00
5413;BME280;2729;50.056;8.678;2023-01-16T02:06:59;98659.28;;;7.05;100.00
5413;BME280;2729;50.056;8.678;2023-01-16T02:09:27;98653.59;;;7.19;100.00
5413;BME280;2729;50.056;8.678;2023-01-16T02:11:58;98641.19;;;7.03;100.00
5413;BME280;2729;50.056;8.678;2023-01-16T02:14:28;98634.13;;;7.07;100.00
5413;BME280;2729;50.056;8.678;2023-01-16T02:17:10;98635.09;;;7.28;100.00
5413;BME280;2729;50.056;8.678;2023-01-16T02:20:25;98623.63;;;7.99;100.00
5413;BME280;2729;50.056;8.678;2023-01-16T02:28:39;98608.41;;;7.46;100.00
5413;BME280;2729;50.056;8.678;2023-01-16T02:31:31;98601.34;;;7.50;100.00
5413;BME280;2729;50.056;8.678;2023-01-16T02:42:33;98584.50;;;7.16;100.00
5413;BME280;2729;50.056;8.678;2023-01-16T02:45:10;98568.16;;;7.58;100.00
5413;BME280;2729;50.056;8.678;2023-01-16T02:47:51;98563.69;;;7.61;100.00
5413;BME280;2729;50.056;8.678;2023-01-16T02:50:26;98559.66;;;7.32;100.00
5413;BME280;2729;50.056;8.678;2023-01-16T02:55:58;98539.84;;;7.08;100.00
5413;BME280;2729;50.056;8.678;2023-01-16T02:58:31;98543.66;;;7.21;100.00
5413;BME280;2729;50.056;8.678;2023-01-16T03:00:59;98532.84;;;7.10;100.00
5413;BME280;2729;50.056;8.678;2023-01-16T03:06:29;98522.47;;;6.88;100.00
5413;BME280;2729;50.056;8.678;2023-01-16T03:09:21;98510.41;;;6.87;100.00
5413;BME280;2729;50.056;8.678;2023-01-16T03:12:11;98514.94;;;7.04;100.00
5413;BME280;2729;50.056;8.678;2023-01-16T03:14:51;98503.66;;;7.05;100.00
5413;BME280;2729;50.056;8.678;2023-01-16T03:17:50;98496.13;;;6.99;100.00
5413;BME280;2729;50.056;8.678;2023-01-16T03:20:33;98496.91;;;7.01;100.00
5413;BME280;2729;50.056;8.678;2023-01-16T03:26:01;98478.50;;;7.07;100.00
5413;BME280;2729;50.056;8.678;2023-01-16T03:28:37;98469.94;;;7.05;100.00
5413;BME280;2729;50.056;8.678;2023-01-16T03:31:14;98466.75;;;6.98;100.00
5413;BME280;2729;50.056;8.678;2023-01-16T03:33:56;98465.19;;;6.94;100.00
5413;BME280;2729;50.056;8.678;2023-01-16T03:37:03;98457.94;;;7.02;100.00
5413;BME280;2729;50.056;8.678;2023-01-16T03:39:36;98455.22;;;7.05;100.00
5413;BME280;2729;50.056;8.678;2023-01-16T03:42:11;98448.03;;;7.12;100.00
5413;BME280;2729;50.056;8.678;2023-01-16T03:44:42;98448.38;;;7.25;100.00
5413;BME280;2729;50.056;8.678;2023-01-16T03:47:14;98447.38;;;7.07;100.00
5413;BME280;2729;50.056;8.678;2023-01-16T03:49:47;98441.88;;;7.15;100.00
5413;BME280;2729;50.056;8.678;2023-01-16T03:52:18;98437.00;;;7.07;100.00
5413;BME280;2729;50.056;8.678;2023-01-16T03:54:50;98430.69;;;7.34;100.00
5413;BME280;2729;50.056;8.678;2023-01-16T03:57:21;98419.97;;;7.22;100.00
5413;BME280;2729;50.056;8.678;2023-01-16T03:59:50;98405.91;;;7.27;100.00
5413;BME280;2729;50.056;8.678;2023-01-16T04:02:20;98405.63;;;7.13;100.00
5413;BME280;2729;50.056;8.678;2023-01-16T04:05:08;98394.59;;;7.08;100.00
5413;BME280;2729;50.056;8.678;2023-01-16T04:07:39;98382.66;;;7.04;100.00
5413;BME280;2729;50.056;8.678;2023-01-16T04:10:11;98383.41;;;7.28;100.00
5413;BME280;2729;50.056;8.678;2023-01-16T04:12:42;98385.38;;;7.01;100.00
5413;BME280;2729;50.056;8.678;2023-01-16T04:15:10;98366.75;;;6.91;100.00
5413;BME280;2729;50.056;8.678;2023-01-16T04:17:38;98371.25;;;7.08;100.00
5413;BME280;2729;50.056;8.678;2023-01-16T04:20:06;98360.59;;;6.73;100.00
5413;BME280;2729;50.056;8.678;2023-01-16T04:22:33;98350.88;;;6.78;100.00
5413;BME280;2729;50.056;8.678;2023-01-16T04:25:01;98342.91;;;6.83;100.00
5413;BME280;2729;50.056;8.678;2023-01-16T04:27:32;98337.56;;;6.66;100.00
5413;BME280;2729;50.056;8.678;2023-01-16T04:29:58;98326.28;;;6.67;100.00
5413;BME280;2729;50.056;8.678;2023-01-16T04:32:24;98324.75;;;6.41;100.00
5413;BME280;2729;50.056;8.678;2023-01-16T04:34:50;98323.16;;;6.59;100.00
5413;BME280;2729;50.056;8.678;2023-01-16T04:37:17;98313.38;;;6.65;100.00
5413;BME280;2729;50.056;8.678;2023-01-16T04:39:44;98315.34;;;6.38;100.00
5413;BME280;2729;50.056;8.678;2023-01-16T04:42:10;98305.53;;;6.25;100.00
5413;BME280;2729;50.056;8.678;2023-01-16T04:44:36;98309.19;;;6.41;100.00
5413;BME280;2729;50.056;8.678;2023-01-16T04:47:02;98300.22;;;6.50;100.00
5413;BME280;2729;50.056;8.678;2023-01-16T04:49:28;98297.09;;;6.41;100.00
5413;BME280;2729;50.056;8.678;2023-01-16T04:51:54;98283.81;;;6.49;100.00
5413;BME280;2729;50.056;8.678;2023-01-16T04:54:20;98276.94;;;6.48;100.00
5413;BME280;2729;50.056;8.678;2023-01-16T04:56:46;98272.78;;;6.44;100.00
5413;BME280;2729;50.056;8.678;2023-01-16T04:59:12;98249.88;;;6.55;100.00
5413;BME280;2729;50.056;8.678;2023-01-16T05:01:39;98256.44;;;6.64;100.00
5413;BME280;2729;50.056;8.678;2023-01-16T05:04:07;98249.63;;;6.61;100.00
5413;BME280;2729;50.056;8.678;2023-01-16T05:06:34;98242.63;;;6.63;100.00
5413;BME280;2729;50.056;8.678;2023-01-16T05:09:00;98233.88;;;6.66;100.00
5413;BME280;2729;50.056;8.678;2023-01-16T05:11:27;98213.88;;;6.69;100.00
5413;BME280;2729;50.056;8.678;2023-01-16T05:13:53;98208.81;;;6.66;100.00
5413;BME280;2729;50.056;8.678;2023-01-16T05:16:21;98209.91;;;6.81;100.00
5413;BME280;2729;50.056;8.678;2023-01-16T05:18:47;98202.91;;;6.83;100.00
5413;BME280;2729;50.056;8.678;2023-01-16T05:21:13;98199.53;;;6.81;100.00
5413;BME280;2729;50.056;8.678;2023-01-16T05:23:42;98192.47;;;6.64;100.00
5413;BME280;2729;50.056;8.678;2023-01-16T05:26:08;98193.44;;;6.62;100.00
5413;BME280;2729;50.056;8.678;2023-01-16T05:28:35;98181.84;;;6.70;100.00
5413;BME280;2729;50.056;8.678;2023-01-16T05:31:02;98180.75;;;6.76;100.00
5413;BME280;2729;50.056;8.678;2023-01-16T05:33:28;98169.00;;;6.88;100.00
5413;BME280;2729;50.056;8.678;2023-01-16T05:35:55;98167.41;;;7.04;100.00
5413;BME280;2729;50.056;8.678;2023-01-16T05:38:21;98161.84;;;6.93;100.00
5413;BME280;2729;50.056;8.678;2023-01-16T05:40:48;98156.03;;;6.88;100.00
5413;BME280;2729;50.056;8.678;2023-01-16T05:43:14;98144.66;;;6.71;100.00
5413;BME280;2729;50.056;8.678;2023-01-16T05:45:40;98136.59;;;6.77;100.00
5413;BME280;2729;50.056;8.678;2023-01-16T05:48:06;98127.78;;;6.82;100.00
5413;BME280;2729;50.056;8.678;2023-01-16T05:50:32;98118.09;;;6.66;100.00
5413;BME280;2729;50.056;8.678;2023-01-16T05:52:58;98109.63;;;6.42;100.00
5413;BME280;2729;50.056;8.678;2023-01-16T05:55:24;98106.09;;;6.64;100.00
5413;BME280;2729;50.056;8.678;2023-01-16T05:57:50;98106.03;;;6.65;100.00
5413;BME280;2729;50.056;8.678;2023-01-16T06:00:17;98093.78;;;6.69;100.00
5413;BME280;2729;50.056;8.678;2023-01-16T06:02:43;98080.63;;;6.73;100.00
5413;BME280;2729;50.056;8.678;2023-01-16T06:05:12;98083.22;;;6.73;100.00
5413;BME280;2729;50.056;8.678;2023-01-16T06:07:39;98077.34;;;6.89;100.00
5413;BME280;2729;50.056;8.678;2023-01-16T06:10:09;98066.84;;;6.92;100.00
5413;BME280;2729;50.056;8.678;2023-01-16T06:12:35;98066.75;;;6.93;100.00
5413;BME280;2729;50.056;8.678;2023-01-16T06:15:01;98061.56;;;6.93;100.00
5413;BME280;2729;50.056;8.678;2023-01-16T06:17:27;98057.66;;;7.03;100.00
5413;BME280;2729;50.056;8.678;2023-01-16T06:19:52;98039.06;;;6.94;100.00
5413;BME280;2729;50.056;8.678;2023-01-16T06:22:18;98035.84;;;6.89;100.00
5413;BME280;2729;50.056;8.678;2023-01-16T06:24:44;98033.19;;;6.90;100.00
5413;BME280;2729;50.056;8.678;2023-01-16T06:27:10;98034.03;;;6.91;100.00
5413;BME280;2729;50.056;8.678;2023-01-16T06:29:36;98021.50;;;6.82;100.00
5413;BME280;2729;50.056;8.678;2023-01-16T06:32:04;98019.66;;;6.84;100.00
5413;BME280;2729;50.056;8.678;2023-01-16T06:34:30;98018.00;;;6.83;100.00
5413;BME280;2729;50.056;8.678;2023-01-16T06:36:56;98019.38;;;6.90;100.00
5413;BME280;2729;50.056;8.678;2023-01-16T06:39:22;98004.88;;;6.86;100.00
5413;BME280;2729;50.056;8.678;2023-01-16T06:41:48;97997.81;;;6.89;100.00
5413;BME280;2729;50.056;8.678;2023-01-16T06:44:13;97991.16;;;6.84;100.00
5413;BME280;2729;50.056;8.678;2023-01-16T06:46:39;97984.94;;;6.69;100.00
5413;BME280;2729;50.056;8.678;2023-01-16T06:49:05;97982.13;;;6.55;100.00
5413;BME280;2729;50.056;8.678;2023-01-16T06:51:31;97984.88;;;6.52;100.00
5413;BME280;2729;50.056;8.678;2023-01-16T06:53:58;97978.34;;;6.43;100.00
5413;BME280;2729;50.056;8.678;2023-01-16T06:56:24;97964.41;;;6.27;100.00
5413;BME280;2729;50.056;8.678;2023-01-16T06:58:50;97960.41;;;6.20;100.00
5413;BME280;2729;50.056;8.678;2023-01-16T07:01:15;97957.97;;;6.17;100.00
5413;BME280;2729;50.056;8.678;2023-01-16T07:03:41;97962.00;;;6.03;100.00
5413;BME280;2729;50.056;8.678;2023-01-16T07:06:07;97951.63;;;6.03;100.00
5413;BME280;2729;50.056;8.678;2023-01-16T07:08:33;97949.28;;;6.18;100.00
5413;BME280;2729;50.056;8.678;2023-01-16T07:11:00;97933.59;;;6.02;100.00
5413;BME280;2729;50.056;8.678;2023-01-16T07:13:26;97931.84;;;6.02;100.00
5413;BME280;2729;50.056;8.678;2023-01-16T07:15:55;97933.66;;;6.00;100.00
5413;BME280;2729;50.056;8.678;2023-01-16T07:18:40;97935.91;;;6.08;100.00
5413;BME280;2729;50.056;8.678;2023-01-16T07:21:28;97918.19;;;5.99;100.00
5413;BME280;2729;50.056;8.678;2023-01-16T07:24:20;97908.03;;;5.94;100.00
5413;BME280;2729;50.056;8.678;2023-01-16T07:26:54;97904.81;;;5.89;100.00
5413;BME280;2729;50.056;8.678;2023-01-16T07:29:24;97903.09;;;6.08;100.00
5413;BME280;2729;50.056;8.678;2023-01-16T07:31:53;97886.78;;;6.06;100.00
5413;BME280;2729;50.056;8.678;2023-01-16T07:34:19;97878.72;;;6.12;100.00
5413;BME280;2729;50.056;8.678;2023-01-16T07:36:46;97869.97;;;5.96;100.00
5413;BME280;2729;50.056;8.678;2023-01-16T07:39:12;97867.66;;;5.90;100.00
5413;BME280;2729;50.056;8.678;2023-01-16T07:41:38;97864.16;;;6.10;100.00
5413;BME280;2729;50.056;8.678;2023-01-16T07:44:06;97853.47;;;6.18;100.00
5413;BME280;2729;50.056;8.678;2023-01-16T07:46:32;97846.94;;;6.28;100.00
5413;BME280;2729;50.056;8.678;2023-01-16T07:49:00;97848.13;;;6.21;100.00
5413;BME280;2729;50.056;8.678;2023-01-16T07:51:26;97841.47;;;6.34;100.00
5413;BME280;2729;50.056;8.678;2023-01-16T07:53:52;97833.09;;;6.29;100.00
5413;BME280;2729;50.056;8.678;2023-01-16T07:56:18;97837.97;;;6.35;100.00
5413;BME280;2729;50.056;8.678;2023-01-16T07:58:44;97829.22;;;6.37;100.00
5413;BME280;2729;50.056;8.678;2023-01-16T08:01:10;97818.50;;;6.45;100.00
5413;BME280;2729;50.056;8.678;2023-01-16T08:03:37;97808.81;;;6.49;100.00
5413;BME280;2729;50.056;8.678;2023-01-16T08:06:03;97803.03;;;6.43;100.00
5413;BME280;2729;50.056;8.678;2023-01-16T08:08:30;97796.63;;;6.51;100.00
5413;BME280;2729;50.056;8.678;2023-01-16T08:10:57;97789.63;;;6.53;100.00
5413;BME280;2729;50.056;8.678;2023-01-16T08:13:24;97778.03;;;6.60;100.00
5413;BME280;2729;50.056;8.678;2023-01-16T08:15:50;97776.75;;;6.51;100.00
5413;BME280;2729;50.056;8.678;2023-01-16T08:18:17;97763.03;;;6.49;100.00
5413;BME280;2729;50.056;8.678;2023-01-16T08:20:46;97762.56;;;6.58;100.00
5413;BME280;2729;50.056;8.678;2023-01-16T08:23:12;97760.66;;;6.62;100.00
5413;BME280;2729;50.056;8.678;2023-01-16T08:25:38;97764.25;;;6.59;100.00
5413;BME280;2729;50.056;8.678;2023-01-16T08:28:04;97759.53;;;6.67;100.00
5413;BME280;2729;50.056;8.678;2023-01-16T08:30:30;97749.09;;;6.69;100.00
5413;BME280;2729;50.056;8.678;2023-01-16T08:33:00;97745.41;;;6.73;100.00
5413;BME280;2729;50.056;8.678;2023-01-16T08:35:27;97739.78;;;6.65;100.00
5413;BME280;2729;50.056;8.678;2023-01-16T08:37:53;97732.31;;;6.59;100.00
5413;BME280;2729;50.056;8.678;2023-01-16T08:40:20;97721.25;;;6.55;100.00
5413;BME280;2729;50.056;8.678;2023-01-16T08:42:46;97703.13;;;6.55;100.00
5413;BME280;2729;50.056;8.678;2023-01-16T08:45:31;97707.69;;;6.67;100.00
5413;BME280;2729;50.056;8.678;2023-01-16T08:48:22;97697.78;;;6.75;100.00
5413;BME280;2729;50.056;8.678;2023-01-16T08:51:15;97686.56;;;6.75;100.00
5413;BME280;2729;50.056;8.678;2023-01-16T08:53:53;97679.56;;;6.77;100.00
5413;BME280;2729;50.056;8.678;2023-01-16T08:56:20;97666.53;;;6.61;100.00
5413;BME280;2729;50.056;8.678;2023-01-16T08:58:47;97658.13;;;6.73;100.00
5413;BME280;2729;50.056;8.678;2023-01-16T09:01:13;97651.44;;;6.69;100.00
5413;BME280;2729;50.056;8.678;2023-01-16T09:03:39;97644.28;;;6.90;100.00
5413;BME280;2729;50.056;8.678;2023-01-16T09:06:05;97661.00;;;6.85;100.00
5413;BME280;2729;50.056;8.678;2023-01-16T09:08:31;97649.19;;;7.12;100.00
5413;BME280;2729;50.056;8.678;2023-01-16T09:10:57;97653.03;;;7.05;100.00
5413;BME280;2729;50.056;8.678;2023-01-16T09:13:41;97638.72;;;6.98;100.00
5413;BME280;2729;50.056;8.678;2023-01-16T09:16:23;97628.31;;;6.82;100.00
5413;BME280;2729;50.056;8.678;2023-01-16T09:18:51;97633.84;;;6.92;100.00
5413;BME280;2729;50.056;8.678;2023-01-16T09:21:19;97623.75;;;7.03;100.00
5413;BME280;2729;50.056;8.678;2023-01-16T09:23:45;97630.88;;;7.15;100.00
5413;BME280;2729;50.056;8.678;2023-01-16T09:26:11;97626.41;;;7.01;100.00
5413;BME280;2729;50.056;8.678;2023-01-16T09:28:37;97630.63;;;7.20;100.00
5413;BME280;2729;50.056;8.678;2023-01-16T09:31:03;97640.16;;;7.35;100.00
5413;BME280;2729;50.056;8.678;2023-01-16T09:33:29;97633.94;;;7.06;100.00
5413;BME280;2729;50.056;8.678;2023-01-16T09:35:55;97629.50;;;7.71;100.00
5413;BME280;2729;50.056;8.678;2023-01-16T09:38:21;97638.91;;;7.26;100.00
5413;BME280;2729;50.056;8.678;2023-01-16T09:40:51;97634.31;;;7.31;100.00
5413;BME280;2729;50.056;8.678;2023-01-16T09:43:31;97629.88;;;7.18;100.00
5413;BME280;2729;50.056;8.678;2023-01-16T09:46:17;97630.25;;;6.94;100.00
5413;BME280;2729;50.056;8.678;2023-01-16T09:48:52;97623.50;;;7.39;100.00
5413;BME280;2729;50.056;8.678;2023-01-16T09:51:37;97617.22;;;7.59;100.00
5413;BME280;2729;50.056;8.678;2023-01-16T09:54:11;97611.91;;;7.92;100.00
5413;BME280;2729;50.056;8.678;2023-01-16T09:56:59;97605.53;;;7.20;100.00
5413;BME280;2729;50.056;8.678;2023-01-16T09:59:53;97603.50;;;7.25;100.00
5413;BME280;2729;50.056;8.678;2023-01-16T10:02:24;97597.66;;;7.22;100.00
5413;BME280;2729;50.056;8.678;2023-01-16T10:04:53;97598.38;;;7.71;100.00
5413;BME280;2729;50.056;8.678;2023-01-16T10:07:37;97586.25;;;7.40;100.00
5413;BME280;2729;50.056;8.678;2023-01-16T10:10:40;97574.03;;;7.42;100.00
5413;BME280;2729;50.056;8.678;2023-01-16T10:13:26;97578.19;;;7.60;100.00
5413;BME280;2729;50.056;8.678;2023-01-16T10:16:17;97576.63;;;7.42;100.00
5413;BME280;2729;50.056;8.678;2023-01-16T10:18:57;97570.03;;;7.36;100.00
5413;BME280;2729;50.056;8.678;2023-01-16T10:24:40;97566.03;;;7.31;100.00
5413;BME280;2729;50.056;8.678;2023-01-16T10:27:19;97563.75;;;7.40;100.00
5413;BME280;2729;50.056;8.678;2023-01-16T10:29:53;97560.09;;;7.13;100.00
5413;BME280;2729;50.056;8.678;2023-01-16T10:32:29;97551.31;;;7.16;100.00
5413;BME280;2729;50.056;8.678;2023-01-16T10:35:12;97545.09;;;7.18;100.00
5413;BME280;2729;50.056;8.678;2023-01-16T10:37:40;97556.03;;;7.55;100.00
5413;BME280;2729;50.056;8.678;2023-01-16T10:40:19;97542.94;;;7.26;100.00
5413;BME280;2729;50.056;8.678;2023-01-16T10:43:02;97546.63;;;7.22;100.00
5413;BME280;2729;50.056;8.678;2023-01-16T10:45:48;97536.66;;;7.15;100.00
5413;BME280;2729;50.056;8.678;2023-01-16T10:48:32;97538.59;;;7.11;100.00
5413;BME280;2729;50.056;8.678;2023-01-16T10:51:17;97537.50;;;7.61;100.00
5413;BME280;2729;50.056;8.678;2023-01-16T10:53:43;97531.03;;;7.38;100.00
5413;BME280;2729;50.056;8.678;2023-01-16T10:56:10;97522.84;;;7.14;100.00
5413;BME280;2729;50.056;8.678;2023-01-16T10:58:37;97514.59;;;7.07;100.00
5413;BME280;2729;50.056;8.678;2023-01-16T11:01:11;97519.91;;;7.82;100.00
5413;BME280;2729;50.056;8.678;2023-01-16T11:03:50;97502.75;;;7.33;100.00
5413;BME280;2729;50.056;8.678;2023-01-16T11:06:22;97515.28;;;7.41;100.00
5413;BME280;2729;50.056;8.678;2023-01-16T11:08:53;97503.63;;;7.18;100.00
5413;BME280;2729;50.056;8.678;2023-01-16T11:11:20;97509.25;;;6.95;100.00
5413;BME280;2729;50.056;8.678;2023-01-16T11:14:13;97502.97;;;6.99;100.00
5413;BME280;2729;50.056;8.678;2023-01-16T11:17:20;97484.75;;;6.85;100.00
5413;BME280;2729;50.056;8.678;2023-01-16T11:20:07;97487.31;;;6.53;100.00
5413;BME280;2729;50.056;8.678;2023-01-16T11:22:38;97480.88;;;6.44;100.00
5413;BME280;2729;50.056;8.678;2023-01-16T11:25:05;97480.59;;;6.33;100.00
5413;BME280;2729;50.056;8.678;2023-01-16T11:27:34;97478.03;;;6.49;100.00
5413;BME280;2729;50.056;8.678;2023-01-16T11:30:05;97476.22;;;6.67;100.00
5413;BME280;2729;50.056;8.678;2023-01-16T11:32:34;97469.75;;;6.90;100.00
5413;BME280;2729;50.056;8.678;2023-01-16T11:35:12;97448.94;;;6.44;100.00
5413;BME280;2729;50.056;8.678;2023-01-16T11:37:38;97450.38;;;6.50;100.00
5413;BME280;2729;50.056;8.678;2023-01-16T11:40:16;97443.78;;;6.44;100.00
5413;BME280;2729;50.056;8.678;2023-01-16T11:42:57;97420.78;;;6.38;100.00
5413;BME280;2729;50.056;8.678;2023-01-16T11:45:46;97422.31;;;7.03;100.00
5413;BME280;2729;50.056;8.678;2023-01-16T11:48:36;97399.22;;;6.69;100.00
5413;BME280;2729;50.056;8.678;2023-01-16T11:51:04;97390.22;;;6.44;100.00
5413;BME280;2729;50.056;8.678;2023-01-16T11:53:33;97388.19;;;6.65;100.00
5413;BME280;2729;50.056;8.678;2023-01-16T11:56:12;97374.00;;;6.57;100.00
5413;BME280;2729;50.056;8.678;2023-01-16T11:59:20;97365.00;;;6.78;100.00
5413;BME280;2729;50.056;8.678;2023-01-16T12:02:13;97354.38;;;6.83;100.00
5413;BME280;2729;50.056;8.678;2023-01-16T12:05:09;97336.16;;;6.84;100.00
5413;BME280;2729;50.056;8.678;2023-01-16T12:10:57;97315.59;;;7.25;100.00
5413;BME280;2729;50.056;8.678;2023-01-16T12:13:35;97301.31;;;7.18;100.00
5413;BME280;2729;50.056;8.678;2023-01-16T12:19:26;97300.22;;;7.22;100.00
5413;BME280;2729;50.056;8.678;2023-01-16T12:25:23;97276.78;;;7.66;100.00
5413;BME280;2729;50.056;8.678;2023-01-16T12:28:02;97273.44;;;7.64;100.00
5413;BME280;2729;50.056;8.678;2023-01-16T12:30:36;97268.72;;;7.42;100.00
5413;BME280;2729;50.056;8.678;2023-01-16T12:33:26;97246.09;;;7.45;100.00
5413;BME280;2729;50.056;8.678;2023-01-16T12:41:14;97230.53;;;7.59;100.00
5413;BME280;2729;50.056;8.678;2023-01-16T12:55:17;97191.00;;;8.36;100.00
5413;BME280;2729;50.056;8.678;2023-01-16T12:58:02;97183.41;;;8.33;100.00
5413;BME280;2729;50.056;8.678;2023-01-16T13:00:48;97164.44;;;8.18;100.00
5413;BME280;2729;50.056;8.678;2023-01-16T13:06:15;97149.28;;;8.25;100.00
5413;BME280;2729;50.056;8.678;2023-01-16T13:08:46;97140.84;;;8.21;100.00
5413;BME280;2729;50.056;8.678;2023-01-16T13:11:21;97128.06;;;8.18;100.00
5413;BME280;2729;50.056;8.678;2023-01-16T13:14:09;97124.75;;;8.29;100.00
5413;BME280;2729;50.056;8.678;2023-01-16T13:16:44;97110.13;;;8.28;100.00
5413;BME280;2729;50.056;8.678;2023-01-16T13:19:19;97112.69;;;8.15;100.00
5413;BME280;2729;50.056;8.678;2023-01-16T13:22:06;97098.09;;;8.40;100.00
5413;BME280;2729;50.056;8.678;2023-01-16T13:24:51;97101.28;;;8.30;100.00
5413;BME280;2729;50.056;8.678;2023-01-16T13:27:25;97093.47;;;8.18;100.00
5413;BME280;2729;50.056;8.678;2023-01-16T13:30:08;97088.28;;;8.30;100.00
5413;BME280;2729;50.056;8.678;2023-01-16T13:35:28;97075.69;;;8.12;100.00
5413;BME280;2729;50.056;8.678;2023-01-16T13:40:57;97058.88;;;8.30;100.00
5413;BME280;2729;50.056;8.678;2023-01-16T13:43:35;97050.91;;;8.33;100.00
5413;BME280;2729;50.056;8.678;2023-01-16T13:46:22;97040.59;;;8.31;100.00
5413;BME280;2729;50.056;8.678;2023-01-16T13:48:53;97041.22;;;8.60;100.00
5413;BME280;2729;50.056;8.678;2023-01-16T13:51:22;97034.16;;;8.50;100.00
5413;BME280;2729;50.056;8.678;2023-01-16T13:53:56;97030.22;;;8.44;100.00
5413;BME280;2729;50.056;8.678;2023-01-16T13:56:26;97035.00;;;8.37;100.00
5413;BME280;2729;50.056;8.678;2023-01-16T13:59:06;97016.19;;;8.34;100.00
5413;BME280;2729;50.056;8.678;2023-01-16T14:01:36;97006.22;;;8.41;100.00
5413;BME280;2729;50.056;8.678;2023-01-16T14:06:47;97002.28;;;8.35;100.00
5413;BME280;2729;50.056;8.678;2023-01-16T14:17:26;97004.84;;;8.48;100.00
5413;BME280;2729;50.056;8.678;2023-01-16T14:20:00;96980.00;;;8.18;100.00
5413;BME280;2729;50.056;8.678;2023-01-16T14:22:34;96965.38;;;8.17;100.00
5413;BME280;2729;50.056;8.678;2023-01-16T14:25:03;96961.00;;;8.43;100.00
5413;BME280;2729;50.056;8.678;2023-01-16T14:27:37;96951.25;;;8.34;100.00
5413;BME280;2729;50.056;8.678;2023-01-16T14:30:16;96953.31;;;8.29;100.00
5413;BME280;2729;50.056;8.678;2023-01-16T14:32:46;96946.06;;;8.34;100.00
5413;BME280;2729;50.056;8.678;2023-01-16T14:35:19;96926.72;;;8.00;100.00
5413;BME280;2729;50.056;8.678;2023-01-16T14:37:56;96920.59;;;8.14;100.00
5413;BME280;2729;50.056;8.678;2023-01-16T14:40:26;96916.13;;;8.16;100.00
5413;BME280;2729;50.056;8.678;2023-01-16T14:43:26;96901.19;;;8.06;100.00
5413;BME280;2729;50.056;8.678;2023-01-16T14:46:23;96897.84;;;8.04;100.00
5413;BME280;2729;50.056;8.678;2023-01-16T14:49:42;96885.69;;;8.05;100.00
5413;BME280;2729;50.056;8.678;2023-01-16T14:52:47;96885.50;;;7.95;100.00
5413;BME280;2729;50.056;8.678;2023-01-16T14:58:10;96878.75;;;8.05;100.00
5413;BME280;2729;50.056;8.678;2023-01-16T15:00:37;96877.53;;;7.86;100.00
5413;BME280;2729;50.056;8.678;2023-01-16T15:03:10;96863.19;;;7.93;100.00
5413;BME280;2729;50.056;8.678;2023-01-16T15:05:45;96859.75;;;7.92;100.00